createdAt,value
2023-10-23T00:01:40.795Z,1.88
2023-10-23T00:04:08.437Z,2.05
2023-10-23T00:06:35.517Z,1.90
2023-10-23T00:11:30.597Z,2.00
2023-10-23T00:13:57.911Z,1.77
2023-10-23T00:16:24.574Z,1.60
2023-10-23T00:18:52.591Z,1.45
2023-10-23T00:21:19.210Z,1.52
2023-10-23T00:23:45.760Z,1.60
2023-10-23T00:26:12.214Z,1.92
2023-10-23T00:28:39.138Z,1.70
2023-10-23T00:36:00.474Z,1.70
2023-10-23T00:38:29.784Z,1.88
2023-10-23T00:40:56.671Z,1.70
2023-10-23T00:43:25.392Z,1.70
2023-10-23T00:45:56.322Z,2.15
2023-10-23T00:48:24.400Z,2.03
2023-10-23T00:50:52.848Z,1.80
2023-10-23T00:53:23.728Z,2.22
2023-10-23T00:55:53.162Z,2.60
2023-10-23T00:58:20.084Z,2.58
2023-10-23T01:03:15.192Z,1.55
2023-10-23T01:05:41.781Z,1.95
2023-10-23T01:08:08.892Z,1.98
2023-10-23T01:10:35.606Z,1.75
2023-10-23T01:13:08.009Z,1.98
2023-10-23T01:15:35.659Z,1.85
2023-10-23T01:18:03.529Z,2.00
2023-10-23T01:20:31.511Z,1.75
2023-10-23T01:22:58.989Z,1.83
2023-10-23T01:25:26.497Z,2.17
2023-10-23T01:27:53.319Z,1.85
2023-10-23T01:30:20.192Z,1.63
2023-10-23T01:35:13.566Z,1.88
2023-10-23T01:45:21.530Z,1.75
2023-10-23T01:47:48.751Z,2.15
2023-10-23T01:50:15.401Z,2.00
2023-10-23T01:52:43.449Z,2.30
2023-10-23T01:55:10.109Z,1.83
2023-10-23T01:57:37.108Z,2.00
2023-10-23T02:00:07.897Z,2.15
2023-10-23T02:02:35.146Z,1.70
2023-10-23T02:05:01.774Z,2.20
2023-10-23T02:07:28.901Z,1.80
2023-10-23T02:09:58.148Z,2.38
2023-10-23T02:12:25.420Z,1.60
2023-10-23T02:14:54.350Z,1.70
2023-10-23T02:17:21.385Z,1.35
2023-10-23T02:19:49.417Z,1.63
2023-10-23T02:22:17.512Z,1.70
2023-10-23T02:24:44.500Z,2.30
2023-10-23T02:32:05.145Z,2.42
2023-10-23T02:34:31.614Z,2.28
2023-10-23T02:36:58.585Z,1.60
2023-10-23T02:41:58.949Z,1.80
2023-10-23T02:44:26.996Z,2.00
2023-10-23T02:46:54.219Z,1.92
2023-10-23T02:49:20.808Z,2.00
2023-10-23T02:51:48.032Z,1.95
2023-10-23T02:54:15.349Z,1.95
2023-10-23T02:56:41.806Z,1.75
2023-10-23T02:59:08.814Z,1.92
2023-10-23T03:06:29.617Z,3.40
2023-10-23T03:08:56.162Z,2.17
2023-10-23T03:11:23.425Z,1.85
2023-10-23T03:13:49.952Z,2.03
2023-10-23T03:16:17.082Z,2.08
2023-10-23T03:18:43.848Z,1.70
2023-10-23T03:21:10.417Z,1.80
2023-10-23T03:23:37.948Z,2.25
2023-10-23T03:26:04.502Z,2.25
2023-10-23T03:28:31.467Z,1.42
2023-10-23T03:31:01.418Z,2.55
2023-10-23T03:33:27.957Z,2.42
2023-10-23T03:35:55.101Z,1.75
2023-10-23T03:38:21.551Z,5.22
2023-10-23T03:40:58.444Z,5.13
2023-10-23T03:43:25.148Z,5.25
2023-10-23T03:45:51.779Z,5.68
2023-10-23T03:48:18.898Z,9.73
2023-10-23T03:50:48.240Z,8.13
2023-10-23T03:53:15.406Z,4.53
2023-10-23T03:55:42.222Z,3.17
2023-10-23T03:58:08.793Z,2.45
2023-10-23T04:00:35.923Z,1.98
2023-10-23T04:03:02.461Z,3.58
2023-10-23T04:05:29.438Z,2.17
2023-10-23T04:07:55.882Z,2.70
2023-10-23T04:10:22.455Z,1.92
2023-10-23T04:12:49.331Z,2.95
2023-10-23T04:17:52.188Z,2.13
2023-10-23T04:20:18.778Z,2.28
2023-10-23T04:22:45.799Z,2.20
2023-10-23T04:25:12.369Z,1.88
2023-10-23T04:27:38.851Z,1.70
2023-10-23T04:30:06.105Z,2.13
2023-10-23T04:32:32.713Z,2.35
2023-10-23T04:35:00.243Z,1.60
2023-10-23T04:40:02.519Z,2.40
2023-10-23T04:42:29.100Z,5.28
2023-10-23T04:44:55.650Z,3.33
2023-10-23T04:47:22.128Z,4.32
2023-10-23T04:49:49.210Z,2.80
2023-10-23T04:52:16.342Z,2.50
2023-10-23T04:54:42.857Z,3.30
2023-10-23T04:57:09.763Z,2.35
2023-10-23T05:02:04.254Z,1.90
2023-10-23T05:04:32.054Z,2.03
2023-10-23T05:06:59.242Z,1.88
2023-10-23T05:11:52.425Z,1.95
2023-10-23T05:15:01.337Z,1.88
2023-10-23T05:20:07.280Z,1.98
2023-10-23T05:22:33.763Z,3.92
2023-10-23T05:25:00.384Z,1.75
2023-10-23T05:27:28.671Z,1.90
2023-10-23T05:29:56.029Z,2.13
2023-10-23T05:32:23.372Z,1.90
2023-10-23T05:34:49.886Z,2.78
2023-10-23T05:37:16.949Z,2.42
2023-10-23T05:39:43.423Z,2.20
2023-10-23T05:42:10.664Z,2.22
2023-10-23T05:44:37.210Z,2.28
2023-10-23T05:47:04.689Z,2.05
2023-10-23T05:49:31.142Z,2.05
2023-10-23T05:51:57.701Z,1.70
2023-10-23T05:54:24.828Z,3.33
2023-10-23T05:56:51.258Z,1.98
2023-10-23T05:59:17.754Z,1.65
2023-10-23T06:01:44.242Z,1.67
2023-10-23T06:04:10.838Z,1.70
2023-10-23T06:06:37.504Z,1.50
2023-10-23T06:09:05.500Z,1.92
2023-10-23T06:11:32.128Z,1.83
2023-10-23T06:13:59.227Z,1.35
2023-10-23T06:16:25.781Z,1.95
2023-10-23T06:21:28.212Z,3.15
2023-10-23T06:23:54.748Z,2.45
2023-10-23T06:26:21.816Z,1.92
2023-10-23T06:28:48.250Z,1.80
2023-10-23T06:31:15.293Z,2.88
2023-10-23T06:33:43.884Z,2.78
2023-10-23T06:36:11.570Z,2.78
2023-10-23T06:38:38.727Z,2.92
2023-10-23T06:41:06.691Z,2.35
2023-10-23T06:43:34.367Z,2.20
2023-10-23T06:46:02.752Z,2.28
2023-10-23T06:48:31.544Z,3.53
2023-10-23T06:50:58.465Z,2.10
2023-10-23T06:53:25.052Z,2.28
2023-10-23T06:55:53.633Z,1.95
2023-10-23T06:58:21.799Z,1.88
2023-10-23T07:00:49.112Z,1.70
2023-10-23T07:03:16.288Z,1.90
2023-10-23T07:05:43.339Z,1.80
2023-10-23T07:10:38.149Z,1.98
2023-10-23T07:13:15.109Z,1.42
2023-10-23T07:15:48.829Z,2.28
2023-10-23T07:25:34.748Z,1.75
2023-10-23T07:28:01.615Z,3.75
2023-10-23T07:30:28.106Z,3.30
2023-10-23T07:32:55.344Z,3.78
2023-10-23T07:35:21.834Z,3.15
2023-10-23T07:37:48.347Z,2.10
2023-10-23T07:40:15.050Z,1.83
2023-10-23T07:42:42.157Z,1.65
2023-10-23T07:45:09.795Z,1.77
2023-10-23T07:47:36.462Z,1.60
2023-10-23T07:50:05.829Z,1.88
2023-10-23T07:52:33.507Z,1.60
2023-10-23T07:55:01.643Z,1.90
2023-10-23T07:57:30.934Z,1.85
2023-10-23T07:59:57.959Z,1.92
2023-10-23T08:02:24.550Z,2.10
2023-10-23T08:04:51.876Z,1.85
2023-10-23T08:07:18.409Z,1.40
2023-10-23T08:09:45.663Z,1.60
2023-10-23T08:12:14.365Z,1.67
2023-10-23T08:14:41.218Z,1.70
2023-10-23T08:17:08.413Z,1.67
2023-10-23T08:19:35.103Z,2.97
2023-10-23T08:22:02.275Z,2.08
2023-10-23T08:24:29.145Z,2.05
2023-10-23T08:26:56.146Z,1.42
2023-10-23T08:31:50.368Z,1.40
2023-10-23T08:34:22.197Z,2.97
2023-10-23T08:36:49.424Z,1.90
2023-10-23T08:39:16.548Z,1.98
2023-10-23T08:41:43.184Z,2.47
2023-10-23T08:44:10.596Z,1.45
2023-10-23T08:46:38.344Z,1.30
2023-10-23T08:49:06.373Z,1.40
2023-10-23T08:51:33.049Z,1.40
2023-10-23T08:56:46.214Z,1.77
2023-10-23T08:59:16.900Z,1.48
2023-10-23T09:01:43.697Z,1.67
2023-10-23T09:06:40.228Z,1.73
2023-10-23T09:09:07.510Z,1.63
2023-10-23T09:11:49.976Z,1.40
2023-10-23T09:14:32.167Z,1.42
2023-10-23T09:17:01.054Z,1.88
2023-10-23T09:19:37.583Z,1.60
2023-10-23T09:22:05.859Z,1.98
2023-10-23T09:24:32.652Z,1.42
2023-10-23T09:26:59.275Z,1.60
2023-10-23T09:29:27.941Z,1.52
2023-10-23T09:31:57.003Z,1.95
2023-10-23T09:34:24.311Z,1.77
2023-10-23T09:36:52.760Z,1.75
2023-10-23T09:39:21.672Z,1.77
2023-10-23T09:41:48.570Z,1.55
2023-10-23T09:46:46.256Z,2.40
2023-10-23T09:49:12.948Z,1.65
2023-10-23T09:54:20.986Z,1.73
2023-10-23T09:56:50.103Z,1.60
2023-10-23T09:59:19.134Z,1.58
2023-10-23T10:01:51.663Z,1.27
2023-10-23T10:04:41.209Z,1.83
2023-10-23T10:07:18.967Z,1.02
2023-10-23T10:09:45.819Z,0.90
2023-10-23T10:17:08.097Z,1.20
2023-10-23T10:19:36.808Z,1.35
2023-10-23T10:22:12.558Z,1.23
2023-10-23T10:24:40.427Z,1.20
2023-10-23T10:27:07.866Z,1.20
2023-10-23T10:29:35.007Z,1.33
2023-10-23T10:32:10.870Z,1.13
2023-10-23T10:37:19.147Z,1.02
2023-10-23T10:39:54.738Z,1.00
2023-10-23T10:42:26.688Z,1.13
2023-10-23T10:45:04.084Z,1.10
2023-10-23T10:47:39.838Z,1.23
2023-10-23T10:50:07.600Z,1.40
2023-10-23T10:52:38.327Z,1.50
2023-10-23T10:55:06.944Z,1.20
2023-10-23T11:00:24.689Z,1.30
2023-10-23T11:02:52.306Z,1.15
2023-10-23T11:05:19.825Z,1.48
2023-10-23T11:07:49.236Z,0.88
2023-10-23T11:10:15.777Z,0.90
2023-10-23T11:12:42.875Z,1.20
2023-10-23T11:15:09.817Z,1.08
2023-10-23T11:20:12.110Z,1.00
2023-10-23T11:22:42.464Z,1.15
2023-10-23T11:25:10.393Z,0.88
2023-10-23T11:27:39.823Z,1.00
2023-10-23T11:32:42.065Z,0.80
2023-10-23T11:35:09.481Z,1.10
2023-10-23T11:37:40.392Z,0.80
2023-10-23T11:40:09.674Z,1.15
2023-10-23T11:45:25.017Z,0.95
2023-10-23T11:47:56.467Z,0.90
2023-10-23T11:50:24.592Z,1.13
2023-10-23T11:52:51.104Z,1.17
2023-10-23T11:55:19.954Z,0.85
2023-10-23T11:57:50.179Z,0.88
2023-10-23T12:00:18.207Z,0.70
2023-10-23T12:02:47.526Z,0.90
2023-10-23T12:05:18.103Z,0.95
2023-10-23T12:07:49.338Z,0.60
2023-10-23T12:10:18.125Z,0.98
2023-10-23T12:12:46.452Z,0.80
2023-10-23T12:15:15.985Z,0.60
2023-10-23T12:17:43.382Z,0.63
2023-10-23T12:20:13.381Z,0.80
2023-10-23T12:22:42.536Z,1.52
2023-10-23T12:25:10.755Z,1.05
2023-10-23T12:27:38.304Z,0.80
2023-10-23T12:30:09.271Z,0.63
2023-10-23T12:33:14.950Z,0.70
2023-10-23T12:35:23.683Z,0.80
2023-10-23T12:37:50.361Z,0.70
2023-10-23T12:40:17.689Z,0.90
2023-10-23T12:42:44.296Z,0.85
2023-10-23T12:45:11.004Z,1.10
2023-10-23T12:50:05.385Z,1.35
2023-10-23T12:52:33.211Z,0.60
2023-10-23T12:55:00.202Z,0.65
2023-10-23T12:57:27.448Z,0.93
2023-10-23T12:59:54.688Z,1.08
2023-10-23T13:02:21.768Z,0.70
2023-10-23T13:04:49.874Z,0.70
2023-10-23T13:07:17.234Z,0.85
2023-10-23T13:09:43.879Z,0.80
2023-10-23T13:12:11.014Z,0.85
2023-10-23T13:14:37.616Z,0.70
2023-10-23T13:17:04.792Z,0.70
2023-10-23T13:19:31.475Z,0.93
2023-10-23T13:21:58.541Z,0.50
2023-10-23T13:24:25.124Z,0.80
2023-10-23T13:26:52.190Z,0.80
2023-10-23T13:29:18.687Z,0.88
2023-10-23T13:31:50.334Z,0.95
2023-10-23T13:36:53.399Z,0.60
2023-10-23T13:39:20.346Z,0.85
2023-10-23T13:41:47.057Z,0.60
2023-10-23T13:46:43.098Z,0.80
2023-10-23T13:49:10.801Z,0.73
2023-10-23T13:51:37.716Z,0.85
2023-10-23T13:54:05.151Z,0.60
2023-10-23T13:56:31.645Z,0.70
2023-10-23T13:58:58.767Z,0.65
2023-10-23T14:01:25.433Z,0.50
2023-10-23T14:03:53.877Z,0.80
2023-10-23T14:06:20.651Z,0.60
2023-10-23T14:12:00.965Z,0.68
2023-10-23T14:14:21.142Z,0.70
2023-10-23T14:16:47.755Z,0.88
2023-10-23T14:21:56.484Z,0.70
2023-10-23T14:24:25.992Z,0.32
2023-10-23T14:26:52.530Z,0.60
2023-10-23T14:29:19.814Z,0.50
2023-10-23T14:31:46.834Z,0.63
2023-10-23T14:34:14.882Z,0.77
2023-10-23T14:36:41.510Z,0.88
2023-10-23T14:39:08.477Z,0.45
2023-10-23T14:41:35.562Z,0.60
2023-10-23T14:44:02.341Z,0.70
2023-10-23T14:48:56.395Z,0.70
2023-10-23T14:51:23.946Z,0.70
2023-10-23T14:53:53.439Z,0.43
2023-10-23T14:56:21.118Z,0.55
2023-10-23T15:01:23.618Z,0.60
2023-10-23T15:03:50.588Z,0.40
2023-10-23T15:08:53.796Z,0.40
2023-10-23T15:11:22.780Z,1.33
2023-10-23T15:13:51.232Z,0.75
2023-10-23T15:16:18.067Z,0.55
2023-10-23T15:21:12.206Z,0.50
2023-10-23T15:23:39.416Z,0.55
2023-10-23T15:26:06.080Z,0.65
2023-10-23T15:28:36.369Z,0.60
2023-10-23T15:31:06.555Z,0.80
2023-10-23T15:33:36.017Z,1.58
2023-10-23T15:36:03.403Z,1.23
2023-10-23T15:38:31.087Z,0.95
2023-10-23T15:41:12.216Z,0.70
2023-10-23T15:43:40.350Z,1.00
2023-10-23T15:46:13.069Z,0.60
2023-10-23T15:48:40.646Z,0.63
2023-10-23T15:51:07.891Z,0.80
2023-10-23T15:53:34.794Z,0.80
2023-10-23T15:58:29.665Z,0.90
2023-10-23T16:00:58.277Z,0.77
2023-10-23T16:03:25.125Z,1.20
2023-10-23T16:05:52.479Z,1.02
2023-10-23T16:08:19.095Z,1.20
2023-10-23T16:10:54.001Z,1.05
2023-10-23T16:13:21.182Z,1.52
2023-10-23T16:15:48.132Z,2.50
2023-10-23T16:18:17.443Z,1.85
2023-10-23T16:20:44.666Z,3.00
2023-10-23T16:23:12.621Z,1.40
2023-10-23T16:25:43.240Z,1.13
2023-10-23T16:28:12.000Z,1.15
2023-10-23T16:30:39.479Z,1.48
2023-10-23T16:33:06.088Z,1.48
2023-10-23T16:35:38.292Z,1.60
2023-10-23T16:38:04.904Z,1.55
2023-10-23T16:40:35.060Z,1.38
2023-10-23T16:43:02.174Z,1.95
2023-10-23T16:45:30.551Z,1.92
2023-10-23T16:47:57.278Z,1.88
2023-10-23T16:50:25.470Z,2.53
2023-10-23T16:52:52.545Z,2.65
2023-10-23T16:55:20.111Z,3.17
2023-10-23T16:57:46.664Z,2.83
2023-10-23T17:00:15.948Z,3.17
2023-10-23T17:02:42.551Z,3.90
2023-10-23T17:05:13.054Z,5.07
2023-10-23T17:10:28.200Z,4.80
2023-10-23T17:12:54.737Z,5.65
2023-10-23T17:15:22.396Z,5.78
2023-10-23T17:17:49.324Z,5.97
2023-10-23T17:20:17.335Z,6.50
2023-10-23T17:22:46.911Z,6.80
2023-10-23T17:25:13.502Z,5.82
2023-10-23T17:27:40.569Z,6.97
2023-10-23T17:32:34.568Z,6.30
2023-10-23T17:35:01.214Z,5.78
2023-10-23T17:37:28.364Z,5.10
2023-10-23T17:39:54.943Z,4.90
2023-10-23T17:42:22.107Z,4.30
2023-10-23T17:44:49.049Z,3.80
2023-10-23T17:47:15.534Z,4.75
2023-10-23T17:49:42.925Z,4.13
2023-10-23T17:52:10.298Z,4.63
2023-10-23T17:54:38.787Z,3.97
2023-10-23T17:57:05.496Z,4.60
2023-10-23T17:59:34.166Z,4.22
2023-10-23T18:02:01.868Z,4.00
2023-10-23T18:04:28.890Z,4.63
2023-10-23T18:06:59.338Z,4.05
2023-10-23T18:09:26.431Z,4.57
2023-10-23T18:14:20.037Z,4.15
2023-10-23T18:16:46.646Z,4.03
2023-10-23T18:19:16.172Z,4.93
2023-10-23T18:21:44.176Z,4.55
2023-10-23T18:24:10.777Z,4.95
2023-10-23T18:26:37.709Z,4.38
2023-10-23T18:29:04.206Z,3.75
2023-10-23T18:31:32.232Z,4.18
2023-10-23T18:33:58.755Z,4.78
2023-10-23T18:36:26.626Z,3.72
2023-10-23T18:38:53.222Z,4.10
2023-10-23T18:41:27.930Z,4.40
2023-10-23T18:43:57.644Z,4.32
2023-10-23T18:46:24.850Z,4.15
2023-10-23T18:48:51.379Z,4.78
2023-10-23T18:51:18.995Z,4.30
2023-10-23T18:53:45.508Z,4.40
2023-10-23T18:56:12.419Z,4.45
2023-10-23T18:58:39.638Z,5.07
2023-10-23T19:01:09.650Z,4.13
2023-10-23T19:03:38.985Z,5.00
2023-10-23T19:06:06.516Z,4.18
2023-10-23T19:08:33.764Z,4.32
2023-10-23T19:11:00.382Z,4.50
2023-10-23T19:13:27.594Z,5.38
2023-10-23T19:16:01.330Z,5.18
2023-10-23T19:18:30.997Z,4.35
2023-10-23T19:21:02.107Z,4.07
2023-10-23T19:23:29.354Z,3.72
2023-10-23T19:25:56.674Z,4.05
2023-10-23T19:28:24.317Z,4.72
2023-10-23T19:30:52.040Z,4.30
2023-10-23T19:33:18.989Z,4.25
2023-10-23T19:35:46.423Z,4.43
2023-10-23T19:38:13.334Z,4.00
2023-10-23T19:40:51.213Z,3.90
2023-10-23T19:43:20.712Z,4.15
2023-10-23T19:45:48.145Z,4.43
2023-10-23T19:48:15.158Z,4.13
2023-10-23T19:53:14.266Z,4.18
2023-10-23T19:55:46.746Z,3.92
2023-10-23T19:58:15.298Z,3.95
2023-10-23T20:03:09.009Z,3.03
2023-10-23T20:05:35.524Z,4.35
2023-10-23T20:08:02.846Z,3.70
2023-10-23T20:10:30.104Z,4.10
2023-10-23T20:12:58.932Z,5.03
2023-10-23T20:15:30.422Z,3.72
2023-10-23T20:17:58.030Z,4.72
2023-10-23T20:20:25.017Z,3.85
2023-10-23T20:22:52.229Z,3.97
2023-10-23T20:25:19.350Z,3.83
2023-10-23T20:27:46.788Z,4.25
2023-10-23T20:30:13.945Z,3.80
2023-10-23T20:32:41.079Z,3.28
2023-10-23T20:35:08.476Z,3.35
2023-10-23T20:37:35.730Z,4.00
2023-10-23T20:40:05.080Z,3.55
2023-10-23T20:42:33.800Z,3.85
2023-10-23T20:47:42.250Z,4.15
2023-10-23T20:50:09.883Z,4.32
2023-10-23T20:52:36.667Z,4.20
2023-10-23T20:55:06.941Z,5.03
2023-10-23T20:57:33.438Z,5.47
2023-10-23T21:00:00.692Z,4.10
2023-10-23T21:02:27.447Z,5.05
2023-10-23T21:04:54.562Z,4.57
2023-10-23T21:09:48.011Z,3.55
2023-10-23T21:12:15.121Z,4.22
2023-10-23T21:17:16.584Z,3.40
2023-10-23T21:19:43.452Z,3.40
2023-10-23T21:24:36.997Z,3.72
2023-10-23T21:27:05.411Z,4.07
2023-10-23T21:29:32.367Z,4.05
2023-10-23T21:34:27.937Z,3.38
2023-10-23T21:36:55.080Z,3.67
2023-10-23T21:39:22.206Z,3.63
2023-10-23T21:41:48.790Z,3.42
2023-10-23T21:44:16.126Z,4.00
2023-10-23T21:46:42.760Z,3.45
2023-10-23T21:49:11.823Z,4.45
2023-10-23T21:51:39.099Z,3.40
2023-10-23T21:54:06.869Z,4.45
2023-10-23T21:57:19.644Z,2.80
2023-10-23T21:59:22.960Z,2.95
2023-10-23T22:01:53.427Z,2.63
2023-10-23T22:04:21.369Z,2.42
2023-10-23T22:06:48.159Z,2.30
2023-10-23T22:09:15.577Z,2.40
2023-10-23T22:11:42.471Z,3.08
2023-10-23T22:14:09.357Z,2.75
2023-10-23T22:19:03.638Z,2.55
2023-10-23T22:21:30.534Z,2.42
2023-10-23T22:23:57.023Z,1.95
2023-10-23T22:26:24.157Z,2.05
2023-10-23T22:28:51.832Z,2.10
2023-10-23T22:31:18.777Z,2.00
2023-10-23T22:36:12.408Z,2.33
2023-10-23T22:38:38.916Z,2.08
2023-10-23T22:41:05.495Z,2.13
2023-10-23T22:43:32.738Z,2.55
2023-10-23T22:46:03.731Z,2.15
2023-10-23T22:48:31.987Z,2.17
2023-10-23T22:50:58.987Z,2.42
2023-10-23T22:55:55.396Z,1.95
2023-10-23T22:58:31.666Z,2.22
2023-10-23T23:00:59.816Z,2.20
2023-10-23T23:03:27.835Z,2.20
2023-10-23T23:06:00.407Z,2.30
2023-10-23T23:08:31.122Z,3.63
2023-10-23T23:10:58.083Z,2.30
2023-10-23T23:15:52.819Z,2.00
2023-10-23T23:18:21.476Z,1.92
2023-10-23T23:20:51.322Z,2.35
2023-10-23T23:23:17.823Z,3.03
2023-10-23T23:25:45.112Z,2.38
2023-10-23T23:28:11.694Z,2.38
2023-10-23T23:30:38.622Z,2.40
2023-10-23T23:33:05.108Z,2.83
2023-10-23T23:35:32.030Z,2.33
2023-10-23T23:40:26.164Z,2.60
2023-10-23T23:42:52.647Z,2.55
2023-10-23T23:45:19.697Z,2.70
2023-10-23T23:52:39.788Z,2.20
2023-10-23T23:55:06.645Z,2.22
2023-10-23T23:57:35.610Z,2.13
